sensor_id;sensor_type;location;lat;lon;timestamp;pressure;altitude;pressure_sealevel;temperature
11424;BMP180;5768;51.476;7.210;2022-08-23T00:02:41;100111.00;;;24.40
11424;BMP180;5768;51.476;7.210;2022-08-23T00:07:45;100113.00;;;24.40
11424;BMP180;5768;51.476;7.210;2022-08-23T00:12:48;100110.00;;;24.40
11424;BMP180;5768;51.476;7.210;2022-08-23T00:17:51;100110.00;;;24.40
11424;BMP180;5768;51.476;7.210;2022-08-23T00:22:54;100106.00;;;24.40
11424;BMP180;5768;51.476;7.210;2022-08-23T00:27:58;100100.00;;;24.40
11424;BMP180;5768;51.476;7.210;2022-08-23T00:33:00;100100.00;;;24.30
11424;BMP180;5768;51.476;7.210;2022-08-23T00:38:04;100096.00;;;24.10
11424;BMP180;5768;51.476;7.210;2022-08-23T00:43:10;100094.00;;;24.00
11424;BMP180;5768;51.476;7.210;2022-08-23T00:48:32;100091.00;;;23.80
11424;BMP180;5768;51.476;7.210;2022-08-23T00:53:43;100097.00;;;23.60
11424;BMP180;5768;51.476;7.210;2022-08-23T00:58:45;100095.00;;;23.50
11424;BMP180;5768;51.476;7.210;2022-08-23T01:03:52;100091.00;;;23.40
11424;BMP180;5768;51.476;7.210;2022-08-23T01:09:02;100080.00;;;23.30
11424;BMP180;5768;51.476;7.210;2022-08-23T01:14:14;100091.00;;;23.20
11424;BMP180;5768;51.476;7.210;2022-08-23T01:19:26;100095.00;;;23.10
11424;BMP180;5768;51.476;7.210;2022-08-23T01:24:31;100094.00;;;23.00
11424;BMP180;5768;51.476;7.210;2022-08-23T01:29:34;100097.00;;;22.90
11424;BMP180;5768;51.476;7.210;2022-08-23T01:34:37;100096.00;;;22.80
11424;BMP180;5768;51.476;7.210;2022-08-23T01:39:40;100100.00;;;22.80
11424;BMP180;5768;51.476;7.210;2022-08-23T01:44:43;100094.00;;;22.70
11424;BMP180;5768;51.476;7.210;2022-08-23T01:49:45;100108.00;;;22.60
11424;BMP180;5768;51.476;7.210;2022-08-23T01:54:49;100109.00;;;22.50
11424;BMP180;5768;51.476;7.210;2022-08-23T01:59:51;100111.00;;;22.40
11424;BMP180;5768;51.476;7.210;2022-08-23T02:04:53;100108.00;;;22.30
11424;BMP180;5768;51.476;7.210;2022-08-23T02:09:57;100113.00;;;22.30
11424;BMP180;5768;51.476;7.210;2022-08-23T02:14:59;100108.00;;;22.20
11424;BMP180;5768;51.476;7.210;2022-08-23T02:20:02;100100.00;;;22.20
11424;BMP180;5768;51.476;7.210;2022-08-23T02:25:08;100097.00;;;22.10
11424;BMP180;5768;51.476;7.210;2022-08-23T02:30:12;100102.00;;;22.10
11424;BMP180;5768;51.476;7.210;2022-08-23T02:35:14;100106.00;;;22.00
11424;BMP180;5768;51.476;7.210;2022-08-23T02:40:18;100108.00;;;22.00
11424;BMP180;5768;51.476;7.210;2022-08-23T02:45:22;100101.00;;;21.90
11424;BMP180;5768;51.476;7.210;2022-08-23T02:50:25;100113.00;;;21.90
11424;BMP180;5768;51.476;7.210;2022-08-23T02:55:29;100120.00;;;21.90
11424;BMP180;5768;51.476;7.210;2022-08-23T03:00:32;100115.00;;;21.80
11424;BMP180;5768;51.476;7.210;2022-08-23T03:05:34;100119.00;;;21.80
11424;BMP180;5768;51.476;7.210;2022-08-23T03:10:41;100116.00;;;21.70
11424;BMP180;5768;51.476;7.210;2022-08-23T03:15:44;100111.00;;;21.70
11424;BMP180;5768;51.476;7.210;2022-08-23T03:20:46;100112.00;;;21.70
11424;BMP180;5768;51.476;7.210;2022-08-23T03:25:50;100109.00;;;21.70
11424;BMP180;5768;51.476;7.210;2022-08-23T03:30:52;100104.00;;;21.60
11424;BMP180;5768;51.476;7.210;2022-08-23T03:35:57;100105.00;;;21.60
11424;BMP180;5768;51.476;7.210;2022-08-23T03:41:02;100111.00;;;21.50
11424;BMP180;5768;51.476;7.210;2022-08-23T03:46:06;100112.00;;;21.50
11424;BMP180;5768;51.476;7.210;2022-08-23T03:51:08;100118.00;;;21.50
11424;BMP180;5768;51.476;7.210;2022-08-23T03:56:21;100124.00;;;21.40
11424;BMP180;5768;51.476;7.210;2022-08-23T04:01:24;100128.00;;;21.40
11424;BMP180;5768;51.476;7.210;2022-08-23T04:06:27;100137.00;;;21.40
11424;BMP180;5768;51.476;7.210;2022-08-23T04:11:30;100126.00;;;21.30
11424;BMP180;5768;51.476;7.210;2022-08-23T04:16:34;100143.00;;;21.30
11424;BMP180;5768;51.476;7.210;2022-08-23T04:21:38;100144.00;;;21.20
11424;BMP180;5768;51.476;7.210;2022-08-23T04:26:42;100148.00;;;21.20
11424;BMP180;5768;51.476;7.210;2022-08-23T04:31:45;100163.00;;;21.20
11424;BMP180;5768;51.476;7.210;2022-08-23T04:36:48;100165.00;;;21.20
11424;BMP180;5768;51.476;7.210;2022-08-23T04:41:52;100167.00;;;21.10
11424;BMP180;5768;51.476;7.210;2022-08-23T04:47:12;100170.00;;;21.10
11424;BMP180;5768;51.476;7.210;2022-08-23T04:52:14;100170.00;;;21.20
11424;BMP180;5768;51.476;7.210;2022-08-23T04:57:18;100169.00;;;21.20
11424;BMP180;5768;51.476;7.210;2022-08-23T05:02:20;100181.00;;;21.30
11424;BMP180;5768;51.476;7.210;2022-08-23T05:07:22;100182.00;;;21.30
11424;BMP180;5768;51.476;7.210;2022-08-23T05:12:26;100187.00;;;21.40
11424;BMP180;5768;51.476;7.210;2022-08-23T05:17:29;100191.00;;;21.50
11424;BMP180;5768;51.476;7.210;2022-08-23T05:22:33;100190.00;;;21.60
11424;BMP180;5768;51.476;7.210;2022-08-23T05:27:37;100198.00;;;21.70
11424;BMP180;5768;51.476;7.210;2022-08-23T05:32:40;100202.00;;;21.80
11424;BMP180;5768;51.476;7.210;2022-08-23T05:37:42;100205.00;;;21.90
11424;BMP180;5768;51.476;7.210;2022-08-23T05:42:47;100215.00;;;22.10
11424;BMP180;5768;51.476;7.210;2022-08-23T05:47:49;100215.00;;;22.20
11424;BMP180;5768;51.476;7.210;2022-08-23T05:52:52;100208.00;;;22.40
11424;BMP180;5768;51.476;7.210;2022-08-23T05:57:56;100215.00;;;22.50
11424;BMP180;5768;51.476;7.210;2022-08-23T06:03:01;100219.00;;;22.70
11424;BMP180;5768;51.476;7.210;2022-08-23T06:08:04;100229.00;;;22.80
11424;BMP180;5768;51.476;7.210;2022-08-23T06:13:08;100236.00;;;22.90
11424;BMP180;5768;51.476;7.210;2022-08-23T06:18:11;100244.00;;;23.10
11424;BMP180;5768;51.476;7.210;2022-08-23T06:23:14;100241.00;;;23.30
11424;BMP180;5768;51.476;7.210;2022-08-23T06:28:18;100249.00;;;23.40
11424;BMP180;5768;51.476;7.210;2022-08-23T06:33:21;100246.00;;;23.60
11424;BMP180;5768;51.476;7.210;2022-08-23T06:38:24;100248.00;;;23.80
11424;BMP180;5768;51.476;7.210;2022-08-23T06:43:28;100246.00;;;24.00
11424;BMP180;5768;51.476;7.210;2022-08-23T06:48:30;100249.00;;;24.20
11424;BMP180;5768;51.476;7.210;2022-08-23T06:53:33;100252.00;;;24.30
11424;BMP180;5768;51.476;7.210;2022-08-23T06:58:37;100259.00;;;24.50
11424;BMP180;5768;51.476;7.210;2022-08-23T07:03:40;100250.00;;;24.60
11424;BMP180;5768;51.476;7.210;2022-08-23T07:08:43;100261.00;;;24.70
11424;BMP180;5768;51.476;7.210;2022-08-23T07:13:47;100264.00;;;24.90
11424;BMP180;5768;51.476;7.210;2022-08-23T07:19:00;100281.00;;;25.10
11424;BMP180;5768;51.476;7.210;2022-08-23T07:24:04;100275.00;;;25.20
11424;BMP180;5768;51.476;7.210;2022-08-23T07:29:14;100286.00;;;25.30
11424;BMP180;5768;51.476;7.210;2022-08-23T07:34:18;100289.00;;;25.50
11424;BMP180;5768;51.476;7.210;2022-08-23T07:39:22;100291.00;;;25.60
11424;BMP180;5768;51.476;7.210;2022-08-23T07:44:31;100296.00;;;25.70
11424;BMP180;5768;51.476;7.210;2022-08-23T07:49:34;100294.00;;;25.90
11424;BMP180;5768;51.476;7.210;2022-08-23T07:54:36;100310.00;;;26.10
11424;BMP180;5768;51.476;7.210;2022-08-23T07:59:40;100309.00;;;26.20
11424;BMP180;5768;51.476;7.210;2022-08-23T08:04:43;100308.00;;;26.20
11424;BMP180;5768;51.476;7.210;2022-08-23T08:09:45;100301.00;;;26.30
11424;BMP180;5768;51.476;7.210;2022-08-23T08:14:49;100302.00;;;26.50
11424;BMP180;5768;51.476;7.210;2022-08-23T08:19:53;100313.00;;;26.70
11424;BMP180;5768;51.476;7.210;2022-08-23T08:24:55;100306.00;;;26.80
11424;BMP180;5768;51.476;7.210;2022-08-23T08:30:04;100303.00;;;27.00
11424;BMP180;5768;51.476;7.210;2022-08-23T08:35:07;100317.00;;;27.10
11424;BMP180;5768;51.476;7.210;2022-08-23T08:40:13;100316.00;;;27.20
11424;BMP180;5768;51.476;7.210;2022-08-23T08:45:25;100312.00;;;27.30
11424;BMP180;5768;51.476;7.210;2022-08-23T08:50:33;100310.00;;;27.50
11424;BMP180;5768;51.476;7.210;2022-08-23T08:55:46;100313.00;;;27.60
11424;BMP180;5768;51.476;7.210;2022-08-23T09:00:51;100316.00;;;27.70
11424;BMP180;5768;51.476;7.210;2022-08-23T09:06:02;100324.00;;;27.90
11424;BMP180;5768;51.476;7.210;2022-08-23T09:11:17;100315.00;;;27.90
11424;BMP180;5768;51.476;7.210;2022-08-23T09:16:38;100325.00;;;28.00
11424;BMP180;5768;51.476;7.210;2022-08-23T09:21:52;100312.00;;;28.10
11424;BMP180;5768;51.476;7.210;2022-08-23T09:26:57;100321.00;;;28.20
11424;BMP180;5768;51.476;7.210;2022-08-23T09:32:03;100326.00;;;28.30
11424;BMP180;5768;51.476;7.210;2022-08-23T09:37:16;100324.00;;;28.30
11424;BMP180;5768;51.476;7.210;2022-08-23T09:42:29;100317.00;;;28.40
11424;BMP180;5768;51.476;7.210;2022-08-23T09:47:36;100320.00;;;28.60
11424;BMP180;5768;51.476;7.210;2022-08-23T09:52:41;100318.00;;;28.70
11424;BMP180;5768;51.476;7.210;2022-08-23T09:57:47;100312.00;;;28.90
11424;BMP180;5768;51.476;7.210;2022-08-23T10:02:51;100318.00;;;29.10
11424;BMP180;5768;51.476;7.210;2022-08-23T10:07:59;100316.00;;;29.30
11424;BMP180;5768;51.476;7.210;2022-08-23T10:13:05;100310.00;;;29.30
11424;BMP180;5768;51.476;7.210;2022-08-23T10:18:21;100304.00;;;29.50
11424;BMP180;5768;51.476;7.210;2022-08-23T10:23:41;100310.00;;;29.50
11424;BMP180;5768;51.476;7.210;2022-08-23T10:28:54;100307.00;;;29.50
11424;BMP180;5768;51.476;7.210;2022-08-23T10:34:41;100308.00;;;29.50
11424;BMP180;5768;51.476;7.210;2022-08-23T10:39:58;100311.00;;;29.60
11424;BMP180;5768;51.476;7.210;2022-08-23T10:45:15;100308.00;;;29.70
11424;BMP180;5768;51.476;7.210;2022-08-23T10:50:19;100293.00;;;29.80
11424;BMP180;5768;51.476;7.210;2022-08-23T10:55:27;100297.00;;;29.90
11424;BMP180;5768;51.476;7.210;2022-08-23T11:00:55;100297.00;;;30.20
11424;BMP180;5768;51.476;7.210;2022-08-23T11:06:43;100292.00;;;30.30
11424;BMP180;5768;51.476;7.210;2022-08-23T11:12:12;100289.00;;;30.50
11424;BMP180;5768;51.476;7.210;2022-08-23T11:17:25;100286.00;;;30.70
11424;BMP180;5768;51.476;7.210;2022-08-23T11:22:34;100289.00;;;30.90
11424;BMP180;5768;51.476;7.210;2022-08-23T11:28:37;100280.00;;;30.90
11424;BMP180;5768;51.476;7.210;2022-08-23T11:33:45;100288.00;;;31.20
11424;BMP180;5768;51.476;7.210;2022-08-23T11:39:23;100290.00;;;31.20
11424;BMP180;5768;51.476;7.210;2022-08-23T11:44:36;100288.00;;;31.20
11424;BMP180;5768;51.476;7.210;2022-08-23T11:50:16;100288.00;;;31.30
11424;BMP180;5768;51.476;7.210;2022-08-23T11:55:52;100275.00;;;31.60
11424;BMP180;5768;51.476;7.210;2022-08-23T12:01:06;100282.00;;;32.20
11424;BMP180;5768;51.476;7.210;2022-08-23T12:06:35;100280.00;;;32.40
11424;BMP180;5768;51.476;7.210;2022-08-23T12:12:13;100278.00;;;32.80
11424;BMP180;5768;51.476;7.210;2022-08-23T12:18:07;100270.00;;;32.90
11424;BMP180;5768;51.476;7.210;2022-08-23T12:23:19;100282.00;;;33.20
11424;BMP180;5768;51.476;7.210;2022-08-23T12:28:40;100275.00;;;33.50
11424;BMP180;5768;51.476;7.210;2022-08-23T12:34:05;100265.00;;;34.10
11424;BMP180;5768;51.476;7.210;2022-08-23T12:39:26;100273.00;;;35.10
11424;BMP180;5768;51.476;7.210;2022-08-23T12:44:31;100277.00;;;35.80
11424;BMP180;5768;51.476;7.210;2022-08-23T12:49:35;100278.00;;;36.30
11424;BMP180;5768;51.476;7.210;2022-08-23T12:54:44;100276.00;;;37.10
11424;BMP180;5768;51.476;7.210;2022-08-23T12:59:57;100277.00;;;38.20
11424;BMP180;5768;51.476;7.210;2022-08-23T13:05:18;100281.00;;;38.50
11424;BMP180;5768;51.476;7.210;2022-08-23T13:10:24;100280.00;;;39.00
11424;BMP180;5768;51.476;7.210;2022-08-23T13:15:44;100274.00;;;40.80
11424;BMP180;5768;51.476;7.210;2022-08-23T13:20:48;100280.00;;;42.00
11424;BMP180;5768;51.476;7.210;2022-08-23T13:25:51;100276.00;;;41.10
11424;BMP180;5768;51.476;7.210;2022-08-23T13:31:02;100286.00;;;40.90
11424;BMP180;5768;51.476;7.210;2022-08-23T13:36:12;100288.00;;;41.80
11424;BMP180;5768;51.476;7.210;2022-08-23T13:41:31;100283.00;;;42.70
11424;BMP180;5768;51.476;7.210;2022-08-23T13:46:42;100269.00;;;43.50
11424;BMP180;5768;51.476;7.210;2022-08-23T13:52:07;100283.00;;;43.60
11424;BMP180;5768;51.476;7.210;2022-08-23T13:57:14;100287.00;;;44.00
11424;BMP180;5768;51.476;7.210;2022-08-23T14:02:19;100276.00;;;45.60
11424;BMP180;5768;51.476;7.210;2022-08-23T14:07:23;100284.00;;;47.00
11424;BMP180;5768;51.476;7.210;2022-08-23T14:12:29;100278.00;;;44.70
11424;BMP180;5768;51.476;7.210;2022-08-23T14:17:39;100279.00;;;41.70
11424;BMP180;5768;51.476;7.210;2022-08-23T14:22:43;100273.00;;;42.20
11424;BMP180;5768;51.476;7.210;2022-08-23T14:27:47;100285.00;;;44.00
11424;BMP180;5768;51.476;7.210;2022-08-23T14:32:50;100286.00;;;45.90
11424;BMP180;5768;51.476;7.210;2022-08-23T14:37:54;100275.00;;;45.10
11424;BMP180;5768;51.476;7.210;2022-08-23T14:42:56;100293.00;;;45.20
11424;BMP180;5768;51.476;7.210;2022-08-23T14:47:59;100293.00;;;45.60
11424;BMP180;5768;51.476;7.210;2022-08-23T14:53:04;100285.00;;;46.60
11424;BMP180;5768;51.476;7.210;2022-08-23T14:58:07;100283.00;;;46.30
11424;BMP180;5768;51.476;7.210;2022-08-23T15:03:17;100288.00;;;47.00
11424;BMP180;5768;51.476;7.210;2022-08-23T15:08:22;100285.00;;;48.40
11424;BMP180;5768;51.476;7.210;2022-08-23T15:13:28;100288.00;;;49.10
11424;BMP180;5768;51.476;7.210;2022-08-23T15:18:31;100281.00;;;49.10
11424;BMP180;5768;51.476;7.210;2022-08-23T15:23:36;100280.00;;;48.60
11424;BMP180;5768;51.476;7.210;2022-08-23T15:28:39;100285.00;;;48.40
11424;BMP180;5768;51.476;7.210;2022-08-23T15:33:42;100286.00;;;49.10
11424;BMP180;5768;51.476;7.210;2022-08-23T15:38:47;100270.00;;;49.00
11424;BMP180;5768;51.476;7.210;2022-08-23T15:43:50;100281.00;;;48.60
11424;BMP180;5768;51.476;7.210;2022-08-23T15:48:58;100271.00;;;48.20
11424;BMP180;5768;51.476;7.210;2022-08-23T15:54:04;100277.00;;;48.90
11424;BMP180;5768;51.476;7.210;2022-08-23T15:59:09;100268.00;;;48.40
11424;BMP180;5768;51.476;7.210;2022-08-23T16:04:13;100274.00;;;48.20
11424;BMP180;5768;51.476;7.210;2022-08-23T16:09:20;100277.00;;;48.50
11424;BMP180;5768;51.476;7.210;2022-08-23T16:14:24;100272.00;;;47.90
11424;BMP180;5768;51.476;7.210;2022-08-23T16:19:27;100273.00;;;47.50
11424;BMP180;5768;51.476;7.210;2022-08-23T16:24:31;100270.00;;;47.60
11424;BMP180;5768;51.476;7.210;2022-08-23T16:29:33;100269.00;;;48.00
11424;BMP180;5768;51.476;7.210;2022-08-23T16:34:40;100267.00;;;48.20
11424;BMP180;5768;51.476;7.210;2022-08-23T16:39:44;100272.00;;;47.90
11424;BMP180;5768;51.476;7.210;2022-08-23T16:44:47;100267.00;;;47.70
11424;BMP180;5768;51.476;7.210;2022-08-23T16:49:49;100269.00;;;48.00
11424;BMP180;5768;51.476;7.210;2022-08-23T16:54:53;100265.00;;;47.90
11424;BMP180;5768;51.476;7.210;2022-08-23T16:59:56;100268.00;;;45.70
11424;BMP180;5768;51.476;7.210;2022-08-23T17:04:58;100274.00;;;42.30
11424;BMP180;5768;51.476;7.210;2022-08-23T17:10:03;100264.00;;;40.00
11424;BMP180;5768;51.476;7.210;2022-08-23T17:15:09;100271.00;;;38.60
11424;BMP180;5768;51.476;7.210;2022-08-23T17:20:15;100272.00;;;37.60
11424;BMP180;5768;51.476;7.210;2022-08-23T17:25:19;100279.00;;;36.70
11424;BMP180;5768;51.476;7.210;2022-08-23T17:30:24;100283.00;;;36.20
11424;BMP180;5768;51.476;7.210;2022-08-23T17:35:30;100295.00;;;35.80
11424;BMP180;5768;51.476;7.210;2022-08-23T17:40:38;100296.00;;;35.30
11424;BMP180;5768;51.476;7.210;2022-08-23T17:45:44;100293.00;;;34.80
11424;BMP180;5768;51.476;7.210;2022-08-23T17:50:47;100302.00;;;34.30
11424;BMP180;5768;51.476;7.210;2022-08-23T17:55:51;100301.00;;;33.90
11424;BMP180;5768;51.476;7.210;2022-08-23T18:00:54;100308.00;;;33.60
11424;BMP180;5768;51.476;7.210;2022-08-23T18:05:56;100315.00;;;33.40
11424;BMP180;5768;51.476;7.210;2022-08-23T18:11:00;100316.00;;;33.60
11424;BMP180;5768;51.476;7.210;2022-08-23T18:16:03;100320.00;;;33.80
11424;BMP180;5768;51.476;7.210;2022-08-23T18:21:08;100318.00;;;33.20
11424;BMP180;5768;51.476;7.210;2022-08-23T18:26:14;100331.00;;;32.60
11424;BMP180;5768;51.476;7.210;2022-08-23T18:31:30;100334.00;;;32.10
11424;BMP180;5768;51.476;7.210;2022-08-23T18:36:33;100339.00;;;31.70
11424;BMP180;5768;51.476;7.210;2022-08-23T18:41:37;100341.00;;;31.40
11424;BMP180;5768;51.476;7.210;2022-08-23T18:46:41;100352.00;;;31.20
11424;BMP180;5768;51.476;7.210;2022-08-23T18:51:44;100355.00;;;30.90
11424;BMP180;5768;51.476;7.210;2022-08-23T18:56:47;100358.00;;;30.70
11424;BMP180;5768;51.476;7.210;2022-08-23T19:01:49;100360.00;;;30.40
11424;BMP180;5768;51.476;7.210;2022-08-23T19:06:51;100359.00;;;30.20
11424;BMP180;5768;51.476;7.210;2022-08-23T19:11:55;100364.00;;;30.00
11424;BMP180;5768;51.476;7.210;2022-08-23T19:17:01;100373.00;;;29.90
11424;BMP180;5768;51.476;7.210;2022-08-23T19:22:04;100372.00;;;29.70
11424;BMP180;5768;51.476;7.210;2022-08-23T19:27:08;100379.00;;;29.60
11424;BMP180;5768;51.476;7.210;2022-08-23T19:32:10;100373.00;;;29.40
11424;BMP180;5768;51.476;7.210;2022-08-23T19:37:13;100385.00;;;29.30
11424;BMP180;5768;51.476;7.210;2022-08-23T19:42:17;100380.00;;;29.30
11424;BMP180;5768;51.476;7.210;2022-08-23T19:47:20;100385.00;;;29.30
11424;BMP180;5768;51.476;7.210;2022-08-23T19:52:22;100394.00;;;29.30
11424;BMP180;5768;51.476;7.210;2022-08-23T19:57:28;100398.00;;;29.30
11424;BMP180;5768;51.476;7.210;2022-08-23T20:02:31;100399.00;;;29.30
11424;BMP180;5768;51.476;7.210;2022-08-23T20:07:33;100397.00;;;29.20
11424;BMP180;5768;51.476;7.210;2022-08-23T20:12:38;100399.00;;;29.00
11424;BMP180;5768;51.476;7.210;2022-08-23T20:17:41;100403.00;;;28.90
11424;BMP180;5768;51.476;7.210;2022-08-23T20:22:44;100411.00;;;28.80
11424;BMP180;5768;51.476;7.210;2022-08-23T20:28:05;100408.00;;;28.80
11424;BMP180;5768;51.476;7.210;2022-08-23T20:33:10;100408.00;;;28.80
11424;BMP180;5768;51.476;7.210;2022-08-23T20:38:13;100416.00;;;28.80
11424;BMP180;5768;51.476;7.210;2022-08-23T20:43:17;100415.00;;;28.80
11424;BMP180;5768;51.476;7.210;2022-08-23T20:48:19;100421.00;;;28.70
11424;BMP180;5768;51.476;7.210;2022-08-23T20:53:21;100417.00;;;28.60
11424;BMP180;5768;51.476;7.210;2022-08-23T20:58:26;100424.00;;;28.50
11424;BMP180;5768;51.476;7.210;2022-08-23T21:03:29;100417.00;;;28.30
11424;BMP180;5768;51.476;7.210;2022-08-23T21:08:32;100421.00;;;28.20
11424;BMP180;5768;51.476;7.210;2022-08-23T21:13:36;100430.00;;;28.00
11424;BMP180;5768;51.476;7.210;2022-08-23T21:18:41;100432.00;;;27.90
11424;BMP180;5768;51.476;7.210;2022-08-23T21:23:43;100424.00;;;27.80
11424;BMP180;5768;51.476;7.210;2022-08-23T21:28:47;100425.00;;;27.70
11424;BMP180;5768;51.476;7.210;2022-08-23T21:33:51;100433.00;;;27.60
11424;BMP180;5768;51.476;7.210;2022-08-23T21:38:54;100428.00;;;27.50
11424;BMP180;5768;51.476;7.210;2022-08-23T21:43:58;100432.00;;;27.30
11424;BMP180;5768;51.476;7.210;2022-08-23T21:49:04;100428.00;;;27.10
11424;BMP180;5768;51.476;7.210;2022-08-23T21:54:09;100421.00;;;27.00
11424;BMP180;5768;51.476;7.210;2022-08-23T21:59:16;100424.00;;;26.80
11424;BMP180;5768;51.476;7.210;2022-08-23T22:04:18;100428.00;;;26.70
11424;BMP180;5768;51.476;7.210;2022-08-23T22:09:21;100425.00;;;26.60
11424;BMP180;5768;51.476;7.210;2022-08-23T22:14:26;100423.00;;;26.50
11424;BMP180;5768;51.476;7.210;2022-08-23T22:19:29;100424.00;;;26.40
11424;BMP180;5768;51.476;7.210;2022-08-23T22:24:34;100428.00;;;26.30
11424;BMP180;5768;51.476;7.210;2022-08-23T22:29:38;100428.00;;;26.20
11424;BMP180;5768;51.476;7.210;2022-08-23T22:34:40;100434.00;;;26.20
11424;BMP180;5768;51.476;7.210;2022-08-23T22:39:42;100431.00;;;26.10
11424;BMP180;5768;51.476;7.210;2022-08-23T22:44:47;100428.00;;;26.10
11424;BMP180;5768;51.476;7.210;2022-08-23T22:49:49;100429.00;;;25.90
11424;BMP180;5768;51.476;7.210;2022-08-23T22:54:51;100428.00;;;25.80
11424;BMP180;5768;51.476;7.210;2022-08-23T22:59:55;100425.00;;;25.70
11424;BMP180;5768;51.476;7.210;2022-08-23T23:04:57;100422.00;;;25.70
11424;BMP180;5768;51.476;7.210;2022-08-23T23:10:00;100428.00;;;25.60
11424;BMP180;5768;51.476;7.210;2022-08-23T23:15:04;100427.00;;;25.50
11424;BMP180;5768;51.476;7.210;2022-08-23T23:20:08;100437.00;;;25.50
11424;BMP180;5768;51.476;7.210;2022-08-23T23:25:27;100437.00;;;25.40
11424;BMP180;5768;51.476;7.210;2022-08-23T23:30:31;100435.00;;;25.40
11424;BMP180;5768;51.476;7.210;2022-08-23T23:35:34;100433.00;;;25.40
11424;BMP180;5768;51.476;7.210;2022-08-23T23:40:37;100437.00;;;25.30
11424;BMP180;5768;51.476;7.210;2022-08-23T23:45:40;100438.00;;;25.30
11424;BMP180;5768;51.476;7.210;2022-08-23T23:50:43;100425.00;;;25.20
11424;BMP180;5768;51.476;7.210;2022-08-23T23:55:45;100421.00;;;25.20
